Time;durP1;ratioP1;P1;durP2;ratioP2;P2;SDS_P1;SDS_P2;PMS_P1;PMS_P2;Temp;Humidity;BMP_temperature;BMP_pressure;BME280_temperature;BME280_humidity;BME280_pressure;Samples;Min_cycle;Max_cycle;Signal;HPM_P1;HPM_P2
2023/06/10 00:00:00;;;;;;;;;;;;;;;17.11;100.00;98849.56;4291612;33;34772;-94
2023/06/10 00:02:39;;;;;;;;;;;;;;;17.15;100.00;98851.13;4278309;33;33228;-95
2023/06/10 00:05:08;;;;;;;;;;;;;;;17.10;100.00;98845.25;4291480;33;35074;-95
2023/06/10 00:07:37;;;;;;;;;;;;;;;17.21;100.00;98844.75;4290193;33;33795;-94
2023/06/10 00:10:06;;;;;;;;;;;;;;;17.66;100.00;98842.66;4290353;33;34008;-94
2023/06/10 00:12:38;;;;;;;;;;;;;;;17.42;100.00;98835.84;4290294;33;33030;-95
2023/06/10 00:15:06;;;;;;;;;;;;;;;17.37;100.00;98829.09;4291491;33;34941;-93
2023/06/10 00:17:38;;;;;;;;;;;;;;;17.23;100.00;98829.75;4290258;33;35268;-94
2023/06/10 00:20:08;;;;;;;;;;;;;;;17.63;100.00;98831.34;4291301;33;35450;-95
2023/06/10 00:22:37;;;;;;;;;;;;;;;17.37;100.00;98832.59;4291365;33;34085;-94
2023/06/10 00:25:05;;;;;;;;;;;;;;;17.68;100.00;98828.47;4278164;33;32897;-95
2023/06/10 00:27:35;;;;;;;;;;;;;;;17.63;100.00;98826.09;4290159;33;35948;-94
2023/06/10 00:30:04;;;;;;;;;;;;;;;17.59;100.00;98835.06;4290071;33;35313;-95
2023/06/10 00:32:32;;;;;;;;;;;;;;;17.58;100.00;98820.19;4278125;33;32103;-94
2023/06/10 00:35:03;;;;;;;;;;;;;;;17.67;100.00;98829.44;4290070;33;33810;-95
2023/06/10 00:37:32;;;;;;;;;;;;;;;17.34;100.00;98831.88;4278254;33;36122;-93
2023/06/10 00:39:59;;;;;;;;;;;;;;;18.21;100.00;98837.34;4291397;33;34599;-95
2023/06/10 00:42:27;;;;;;;;;;;;;;;17.53;100.00;98835.34;4289993;33;34159;-93
2023/06/10 00:44:55;;;;;;;;;;;;;;;17.44;100.00;98830.53;4290089;33;33965;-95
2023/06/10 00:47:23;;;;;;;;;;;;;;;17.50;100.00;98842.53;4290008;33;34830;-94
2023/06/10 00:49:51;;;;;;;;;;;;;;;17.47;100.00;98842.69;4289926;33;35400;-93
2023/06/10 00:52:20;;;;;;;;;;;;;;;18.22;100.00;98828.53;4289955;33;33230;-94
2023/06/10 00:54:47;;;;;;;;;;;;;;;17.73;100.00;98841.44;4290111;33;33932;-94
2023/06/10 00:57:15;;;;;;;;;;;;;;;17.47;100.00;98840.03;4290991;33;35295;-94
2023/06/10 00:59:46;;;;;;;;;;;;;;;17.44;100.00;98836.63;4289901;33;34725;-94
2023/06/10 01:02:13;;;;;;;;;;;;;;;17.83;100.00;98842.72;4290224;33;33480;-94
2023/06/10 01:04:41;;;;;;;;;;;;;;;17.99;100.00;98841.06;4291343;33;34718;-94
2023/06/10 01:07:15;;;;;;;;;;;;;;;18.04;100.00;98837.38;4291056;33;35172;-96
2023/06/10 01:09:59;;;;;;;;;;;;;;;18.09;100.00;98843.22;4289966;33;33819;-95
2023/06/10 01:12:34;;;;;;;;;;;;;;;17.66;100.00;98840.03;4277951;33;34126;-94
2023/06/10 01:15:03;;;;;;;;;;;;;;;17.66;100.00;98840.03;4289970;33;34698;-93
2023/06/10 01:17:31;;;;;;;;;;;;;;;17.81;100.00;98844.56;4289728;33;36001;-94
2023/06/10 01:20:11;;;;;;;;;;;;;;;17.84;100.00;98848.81;4290886;33;35405;-95
2023/06/10 01:22:39;;;;;;;;;;;;;;;17.60;100.00;98839.41;4290068;33;33407;-94
2023/06/10 01:25:07;;;;;;;;;;;;;;;17.63;100.00;98841.03;4291109;33;34135;-94
2023/06/10 01:27:39;;;;;;;;;;;;;;;17.74;100.00;98843.16;4289753;33;35960;-93
2023/06/10 01:30:18;;;;;;;;;;;;;;;17.70;100.00;98844.22;4278083;33;34307;-94
2023/06/10 01:32:46;;;;;;;;;;;;;;;18.04;100.00;98840.84;4278132;33;31879;-94
2023/06/10 01:35:15;;;;;;;;;;;;;;;17.94;100.00;98843.06;4290847;33;34889;-94
2023/06/10 01:37:45;;;;;;;;;;;;;;;17.79;100.00;98836.75;4290899;33;35322;-95
2023/06/10 01:40:13;;;;;;;;;;;;;;;17.84;100.00;98833.03;4289820;33;35427;-94
2023/06/10 01:42:41;;;;;;;;;;;;;;;17.98;100.00;98835.84;4277811;33;33375;-95
2023/06/10 01:45:09;;;;;;;;;;;;;;;17.90;100.00;98838.88;4290765;33;34246;-94
2023/06/10 01:47:37;;;;;;;;;;;;;;;17.91;100.00;98840.59;4291128;33;35038;-94
2023/06/10 01:50:06;;;;;;;;;;;;;;;18.43;100.00;98841.56;4290784;33;34705;-93
2023/06/10 01:52:35;;;;;;;;;;;;;;;18.26;100.00;98834.50;4289652;33;33696;-94
2023/06/10 01:55:03;;;;;;;;;;;;;;;17.99;100.00;98843.69;4277870;33;34242;-94
2023/06/10 01:57:31;;;;;;;;;;;;;;;17.91;100.00;98845.00;4277817;33;34915;-95
2023/06/10 01:59:59;;;;;;;;;;;;;;;17.87;100.00;98840.81;4289539;33;33785;-94
2023/06/10 02:02:26;;;;;;;;;;;;;;;17.83;100.00;98842.72;4288850;33;32528;-94
2023/06/10 02:04:55;;;;;;;;;;;;;;;17.81;100.00;98834.87;4277861;33;33877;-95
2023/06/10 02:07:23;;;;;;;;;;;;;;;17.78;100.00;98834.19;4290476;33;35132;-93
2023/06/10 02:09:50;;;;;;;;;;;;;;;17.93;100.00;98838.75;4289588;33;35415;-94
2023/06/10 02:12:18;;;;;;;;;;;;;;;17.99;100.00;98833.16;4290463;33;33398;-95
2023/06/10 02:14:46;;;;;;;;;;;;;;;17.93;100.00;98832.59;4290668;33;35043;-95
2023/06/10 02:17:14;;;;;;;;;;;;;;;17.85;100.00;98840.00;4289526;33;36047;-95
2023/06/10 02:19:42;;;;;;;;;;;;;;;17.72;100.00;98839.75;4290427;33;34575;-93
2023/06/10 02:22:10;;;;;;;;;;;;;;;17.93;100.00;98844.00;4289727;33;32988;-95
2023/06/10 02:24:38;;;;;;;;;;;;;;;17.92;100.00;98842.28;4289495;33;34105;-94
2023/06/10 02:27:06;;;;;;;;;;;;;;;17.90;100.00;98838.03;4290511;33;35117;-93
2023/06/10 02:29:35;;;;;;;;;;;;;;;17.86;100.00;98847.88;4290666;33;34702;-96
2023/06/10 02:32:04;;;;;;;;;;;;;;;17.98;100.00;98841.13;4290670;33;33456;-93
2023/06/10 02:34:36;;;;;;;;;;;;;;;17.99;100.00;98832.31;4277341;33;32915;-94
2023/06/10 02:37:05;;;;;;;;;;;;;;;17.84;100.00;98839.12;4277333;33;34865;-94
2023/06/10 02:39:33;;;;;;;;;;;;;;;17.72;100.00;98840.59;4277310;33;32996;-94
2023/06/10 02:42:01;;;;;;;;;;;;;;;17.51;100.00;98837.22;4290636;33;34145;-95
2023/06/10 02:44:30;;;;;;;;;;;;;;;17.41;100.00;98847.28;4289337;33;33897;-95
2023/06/10 02:46:58;;;;;;;;;;;;;;;17.35;100.00;98837.06;4290602;33;36050;-94
2023/06/10 02:49:29;;;;;;;;;;;;;;;17.44;100.00;98846.31;4289571;33;35155;-95
2023/06/10 02:51:58;;;;;;;;;;;;;;;17.51;100.00;98849.53;4289505;33;33439;-94
2023/06/10 02:54:26;;;;;;;;;;;;;;;17.36;100.00;98849.28;4290373;33;35037;-94
2023/06/10 02:56:55;;;;;;;;;;;;;;;17.57;100.00;98847.44;4289381;33;35191;-95
2023/06/10 02:59:24;;;;;;;;;;;;;;;17.59;100.00;98845.59;4289065;33;34720;-94
2023/06/10 03:01:51;;;;;;;;;;;;;;;17.51;100.00;98857.41;4289206;33;34102;-94
2023/06/10 03:04:20;;;;;;;;;;;;;;;17.36;100.00;98848.44;4289433;33;34648;-94
2023/06/10 03:06:49;;;;;;;;;;;;;;;17.48;100.00;98853.13;4289128;33;35125;-94
2023/06/10 03:09:17;;;;;;;;;;;;;;;17.56;100.00;98858.91;4290254;33;35070;-95
2023/06/10 03:11:45;;;;;;;;;;;;;;;17.43;100.00;98849.87;4276834;33;32553;-94
2023/06/10 03:14:13;;;;;;;;;;;;;;;17.42;100.00;98848.19;4288301;33;34648;-94
2023/06/10 03:16:42;;;;;;;;;;;;;;;17.52;100.00;98849.44;4288909;33;35144;-93
2023/06/10 03:19:10;;;;;;;;;;;;;;;17.65;100.00;98840.94;4289273;33;35513;-95
2023/06/10 03:21:41;;;;;;;;;;;;;;;17.57;100.00;98855.31;4290345;33;32933;-94
2023/06/10 03:24:10;;;;;;;;;;;;;;;17.62;100.00;98844.59;4290345;33;36579;-94
2023/06/10 03:26:38;;;;;;;;;;;;;;;17.53;100.00;98840.63;4288755;33;35351;-93
2023/06/10 03:29:07;;;;;;;;;;;;;;;17.55;100.00;98849.28;4290254;33;34491;-93
2023/06/10 03:31:36;;;;;;;;;;;;;;;17.64;100.00;98850.63;4288820;33;34091;-94
2023/06/10 03:34:05;;;;;;;;;;;;;;;17.66;100.00;98851.41;4289121;33;34252;-94
2023/06/10 03:36:33;;;;;;;;;;;;;;;17.95;100.00;98860.59;4276806;33;34174;-94
2023/06/10 03:39:01;;;;;;;;;;;;;;;17.97;100.00;98861.34;4276667;33;33013;-94
2023/06/10 03:41:29;;;;;;;;;;;;;;;18.01;100.00;98851.53;4288685;33;32979;-93
2023/06/10 03:43:57;;;;;;;;;;;;;;;17.83;100.00;98858.50;4288971;33;35011;-94
2023/06/10 03:46:25;;;;;;;;;;;;;;;17.88;100.00;98863.59;4288716;33;34632;-95
2023/06/10 03:48:53;;;;;;;;;;;;;;;17.80;100.00;98864.75;4289967;33;35321;-94
2023/06/10 03:51:21;;;;;;;;;;;;;;;17.81;100.00;98866.47;4276843;33;33198;-95
2023/06/10 03:53:49;;;;;;;;;;;;;;;17.81;100.00;98868.28;4265082;33;34361;-94
2023/06/10 03:56:18;;;;;;;;;;;;;;;17.99;100.00;98870.03;4276534;33;36004;-94
2023/06/10 03:58:45;;;;;;;;;;;;;;;17.86;100.00;98860.16;4276622;33;34177;-96
2023/06/10 04:01:14;;;;;;;;;;;;;;;17.74;100.00;98861.59;4289750;33;34074;-94
2023/06/10 04:03:43;;;;;;;;;;;;;;;17.99;100.00;98862.12;4276590;33;32486;-94
2023/06/10 04:06:11;;;;;;;;;;;;;;;18.09;100.00;98859.03;4289510;33;35153;-96
2023/06/10 04:08:39;;;;;;;;;;;;;;;18.14;100.00;98857.03;4276243;33;33839;-94
2023/06/10 04:11:07;;;;;;;;;;;;;;;18.29;100.00;98858.91;4276495;33;33773;-94
2023/06/10 04:13:35;;;;;;;;;;;;;;;18.49;100.00;98846.50;4288074;33;33867;-95
2023/06/10 04:16:03;;;;;;;;;;;;;;;18.83;100.00;98844.78;4288202;33;35620;-94
2023/06/10 04:18:31;;;;;;;;;;;;;;;18.93;100.00;98854.75;4288217;33;35071;-93
2023/06/10 04:20:59;;;;;;;;;;;;;;;19.28;100.00;98851.19;4289155;33;34014;-93
2023/06/10 04:23:27;;;;;;;;;;;;;;;19.34;100.00;98856.13;4276312;33;34174;-94
2023/06/10 04:25:55;;;;;;;;;;;;;;;19.45;100.00;98848.47;4290245;33;35321;-93
2023/06/10 04:28:23;;;;;;;;;;;;;;;19.72;100.00;98847.88;4290564;33;35422;-93
2023/06/10 04:30:51;;;;;;;;;;;;;;;19.75;100.00;98855.66;4291557;33;33284;-95
2023/06/10 04:33:19;;;;;;;;;;;;;;;19.95;100.00;98851.03;4290260;33;33870;-94
2023/06/10 04:35:47;;;;;;;;;;;;;;;19.72;100.00;98849.69;4278525;33;35054;-94
2023/06/10 04:38:16;;;;;;;;;;;;;;;19.86;100.00;98853.25;4291425;33;35196;-94
2023/06/10 04:40:44;;;;;;;;;;;;;;;20.36;100.00;98855.72;4290069;33;33308;-94
2023/06/10 04:43:13;;;;;;;;;;;;;;;20.35;98.46;98856.69;4291428;33;34108;-94
2023/06/10 04:45:44;;;;;;;;;;;;;;;20.21;100.00;98853.03;4290320;33;35220;-96
2023/06/10 04:48:13;;;;;;;;;;;;;;;20.74;95.68;98856.13;4290080;33;35006;-94
2023/06/10 04:50:41;;;;;;;;;;;;;;;20.76;94.49;98854.22;4291422;33;33706;-93
2023/06/10 04:53:10;;;;;;;;;;;;;;;21.16;92.35;98856.22;4290323;33;32990;-95
2023/06/10 04:55:39;;;;;;;;;;;;;;;21.08;95.49;98853.22;4290246;33;35246;-93
2023/06/10 04:58:07;;;;;;;;;;;;;;;20.95;93.11;98861.91;4290010;33;34647;-94
2023/06/10 05:00:34;;;;;;;;;;;;;;;21.01;92.29;98861.50;4289955;33;33321;-94
2023/06/10 05:03:03;;;;;;;;;;;;;;;21.19;93.05;98856.03;4290074;33;34090;-94
2023/06/10 05:05:30;;;;;;;;;;;;;;;21.28;91.26;98851.94;4278027;33;35371;-96
2023/06/10 05:07:58;;;;;;;;;;;;;;;21.33;89.62;98856.00;4290222;33;35410;-94
2023/06/10 05:10:26;;;;;;;;;;;;;;;21.21;nan;98859.41;4289961;33;33828;-94
2023/06/10 05:12:54;;;;;;;;;;;;;;;21.47;89.25;98864.94;4289708;33;34937;-94
2023/06/10 05:15:22;;;;;;;;;;;;;;;21.01;89.85;98860.66;4289912;33;35218;-93
2023/06/10 05:17:51;;;;;;;;;;;;;;;21.70;90.72;98860.81;4278084;33;34808;-95
2023/06/10 05:20:19;;;;;;;;;;;;;;;22.00;88.71;98868.56;4291062;33;33258;-94
2023/06/10 05:22:47;;;;;;;;;;;;;;;22.12;89.43;98867.75;4289931;33;34209;-95
2023/06/10 05:25:15;;;;;;;;;;;;;;;21.59;89.46;98869.44;4289794;33;35323;-95
2023/06/10 05:27:43;;;;;;;;;;;;;;;21.72;86.44;98872.16;4290877;33;35336;-94
2023/06/10 05:30:11;;;;;;;;;;;;;;;20.74;91.92;98865.84;4278077;33;33704;-93
2023/06/10 05:32:39;;;;;;;;;;;;;;;20.69;93.28;98876.69;4291023;33;34317;-94
2023/06/10 05:35:07;;;;;;;;;;;;;;;20.62;94.13;98872.72;4289485;33;34229;-95
2023/06/10 05:37:36;;;;;;;;;;;;;;;21.35;89.02;98872.69;4277541;33;34593;-94
2023/06/10 05:40:05;;;;;;;;;;;;;;;20.63;93.91;98864.69;4289845;33;34130;-94
2023/06/10 05:42:32;;;;;;;;;;;;;;;20.62;94.78;98864.78;4290455;33;34987;-94
2023/06/10 05:45:00;;;;;;;;;;;;;;;20.16;97.55;98860.38;4290741;33;35351;-93
2023/06/10 05:47:28;;;;;;;;;;;;;;;20.33;97.79;98869.09;4289708;33;34737;-94
2023/06/10 05:49:56;;;;;;;;;;;;;;;20.29;99.86;98870.25;4290856;33;33392;-93
2023/06/10 05:52:24;;;;;;;;;;;;;;;20.21;100.00;98868.91;4290757;33;33808;-94
2023/06/10 05:54:54;;;;;;;;;;;;;;;20.43;98.71;98872.91;4289930;33;35176;-94
2023/06/10 05:57:21;;;;;;;;;;;;;;;20.43;96.54;98881.69;4290705;33;34342;-93
2023/06/10 05:59:49;;;;;;;;;;;;;;;20.70;95.81;98878.41;4277671;33;33235;-94
2023/06/10 06:02:18;;;;;;;;;;;;;;;21.11;91.59;98879.50;4289615;33;34118;-96
2023/06/10 06:04:46;;;;;;;;;;;;;;;20.76;94.85;98874.53;4289667;33;35948;-94
2023/06/10 06:07:14;;;;;;;;;;;;;;;20.59;91.77;98872.87;4289289;33;33385;-94
2023/06/10 06:09:41;;;;;;;;;;;;;;;20.63;92.44;98877.09;4289591;33;33086;-94
2023/06/10 06:12:10;;;;;;;;;;;;;;;20.91;90.92;98870.97;4289567;33;34956;-94
2023/06/10 06:14:41;;;;;;;;;;;;;;;20.80;92.53;98878.69;4290475;33;35236;-95
2023/06/10 06:17:09;;;;;;;;;;;;;;;20.47;96.51;98874.44;4290686;33;35473;-93
2023/06/10 06:19:37;;;;;;;;;;;;;;;20.83;96.78;98879.38;4290713;33;33259;-94
2023/06/10 06:22:05;;;;;;;;;;;;;;;21.72;93.53;98873.00;4290614;33;33929;-94
2023/06/10 06:24:33;;;;;;;;;;;;;;;22.36;89.25;98875.09;4290940;33;35294;-94
2023/06/10 06:27:01;;;;;;;;;;;;;;;23.16;81.09;98885.59;4290518;33;34478;-94
2023/06/10 06:29:29;;;;;;;;;;;;;;;22.78;77.06;98881.06;4290737;33;34133;-94
2023/06/10 06:31:58;;;;;;;;;;;;;;;23.52;76.99;98883.91;4289523;33;34075;-94
2023/06/10 06:34:26;;;;;;;;;;;;;;;24.36;73.31;98887.56;4290684;33;36014;-94
2023/06/10 06:36:53;;;;;;;;;;;;;;;24.96;69.72;98887.53;4289228;33;34241;-94
2023/06/10 06:39:23;;;;;;;;;;;;;;;24.47;70.50;98886.75;4289395;33;34187;-93
2023/06/10 06:41:50;;;;;;;;;;;;;;;23.25;78.30;98890.25;4289344;33;34757;-94
2023/06/10 06:44:25;;;;;;;;;;;;;;;23.02;75.94;98893.63;4290516;33;35741;-93
2023/06/10 06:46:53;;;;;;;;;;;;;;;22.93;76.42;98888.97;4289115;33;34678;-94
2023/06/10 06:49:21;;;;;;;;;;;;;;;22.97;74.57;98888.63;4290363;33;33141;-93
2023/06/10 06:51:49;;;;;;;;;;;;;;;22.27;80.59;98896.91;4290300;33;34128;-94
2023/06/10 06:54:17;;;;;;;;;;;;;;;22.49;78.66;98886.56;4289189;33;34474;-93
2023/06/10 06:56:45;;;;;;;;;;;;;;;23.21;80.37;98896.72;4290361;33;35312;-94
2023/06/10 06:59:13;;;;;;;;;;;;;;;23.70;75.19;98892.41;4289286;33;33076;-94
2023/06/10 07:01:42;;;;;;;;;;;;;;;24.94;70.43;98886.78;4289171;33;34057;-95
2023/06/10 07:04:09;;;;;;;;;;;;;;;25.10;72.58;98892.62;4289075;33;36039;-95
2023/06/10 07:06:38;;;;;;;;;;;;;;;26.38;61.36;98889.53;4288943;33;34744;-95
2023/06/10 07:09:07;;;;;;;;;;;;;;;26.03;59.60;98886.16;4290328;33;33019;-94
2023/06/10 07:11:35;;;;;;;;;;;;;;;25.22;61.77;98889.94;4288802;33;34544;-94
2023/06/10 07:14:02;;;;;;;;;;;;;;;24.02;66.50;98882.09;4289173;33;36076;-95
2023/06/10 07:16:31;;;;;;;;;;;;;;;24.48;68.88;98884.94;4289046;33;35485;-95
2023/06/10 07:18:59;;;;;;;;;;;;;;;24.96;68.53;98893.69;4288977;33;33107;-94
2023/06/10 07:21:28;;;;;;;;;;;;;;;24.89;66.28;98889.81;4290126;33;34238;-94
2023/06/10 07:23:56;;;;;;;;;;;;;;;25.29;64.09;98899.19;4288794;33;33792;-95
2023/06/10 07:26:25;;;;;;;;;;;;;;;25.39;66.52;98897.50;4290120;33;35379;-94
2023/06/10 07:28:53;;;;;;;;;;;;;;;25.99;61.70;98899.88;4290117;33;34005;-96
2023/06/10 07:31:21;;;;;;;;;;;;;;;25.12;69.91;98889.84;4288849;33;34941;-94
2023/06/10 07:33:49;;;;;;;;;;;;;;;26.03;63.98;98895.97;4288587;33;35122;-93
2023/06/10 07:36:17;;;;;;;;;;;;;;;25.84;61.80;98902.78;4290224;33;35053;-94
2023/06/10 07:38:45;;;;;;;;;;;;;;;25.34;61.64;98903.22;4288591;33;34022;-94
2023/06/10 07:41:14;;;;;;;;;;;;;;;25.15;63.69;98897.59;4289067;33;34083;-96
2023/06/10 07:43:41;;;;;;;;;;;;;;;24.98;64.48;98904.22;4289618;33;34459;-94
2023/06/10 07:46:09;;;;;;;;;;;;;;;24.01;66.55;98893.69;4289564;33;35183;-93
2023/06/10 07:48:37;;;;;;;;;;;;;;;23.98;65.50;98899.25;4289739;33;34117;-93
2023/06/10 07:51:05;;;;;;;;;;;;;;;23.80;67.98;98896.09;4289586;33;34934;-93
2023/06/10 07:53:33;;;;;;;;;;;;;;;22.82;73.12;98901.16;4288479;33;34922;-93
2023/06/10 07:56:01;;;;;;;;;;;;;;;23.50;69.31;98908.91;4258125;33;1013314;-93
2023/06/10 07:58:28;;;;;;;;;;;;;;;23.24;68.81;98899.19;4288215;33;33811;-94
2023/06/10 08:00:56;;;;;;;;;;;;;;;23.23;72.32;98899.28;4291411;33;33931;-95
2023/06/10 08:03:25;;;;;;;;;;;;;;;23.40;71.42;98901.59;4291492;33;35127;-95
2023/06/10 08:05:52;;;;;;;;;;;;;;;24.61;69.20;98901.72;4291739;33;34478;-96
2023/06/10 08:08:20;;;;;;;;;;;;;;;25.39;66.10;98896.66;4278404;33;31814;-96
2023/06/10 08:10:49;;;;;;;;;;;;;;;25.65;67.97;98902.56;4290905;33;34148;-93
2023/06/10 08:13:17;;;;;;;;;;;;;;;26.18;66.48;98907.22;4292109;33;36025;-96
2023/06/10 08:15:45;;;;;;;;;;;;;;;26.25;62.86;98901.22;4290471;33;34670;-93
2023/06/10 08:18:13;;;;;;;;;;;;;;;27.37;59.15;98901.59;4292213;33;33368;-95
2023/06/10 08:20:41;;;;;;;;;;;;;;;26.66;58.39;98914.78;4290724;33;34095;-95
2023/06/10 08:23:08;;;;;;;;;;;;;;;27.34;57.80;98896.53;4291738;33;34925;-95
2023/06/10 08:25:36;;;;;;;;;;;;;;;27.61;54.65;98895.06;4291287;33;34755;-93
2023/06/10 08:28:04;;;;;;;;;;;;;;;27.86;54.23;98903.59;4291448;33;33475;-94
2023/06/10 08:30:32;;;;;;;;;;;;;;;26.73;59.69;98899.94;4291872;33;35046;-94
2023/06/10 08:33:00;;;;;;;;;;;;;;;27.56;54.37;98897.31;4278257;33;35552;-94
2023/06/10 08:35:28;;;;;;;;;;;;;;;27.57;54.23;98888.31;4291238;33;34610;-95
2023/06/10 08:37:56;;;;;;;;;;;;;;;26.85;59.87;98893.56;4292040;33;33418;-96
2023/06/10 08:40:25;;;;;;;;;;;;;;;27.05;58.66;98897.22;4290646;33;34254;-93
2023/06/10 08:42:58;;;;;;;;;;;;;;;27.94;53.40;98893.06;4291129;33;35243;-94
2023/06/10 08:45:27;;;;;;;;;;;;;;;28.42;54.46;98891.41;4290577;33;34347;-93
2023/06/10 08:47:55;;;;;;;;;;;;;;;27.74;57.42;98887.66;4290127;33;34004;-93
2023/06/10 08:50:23;;;;;;;;;;;;;;;28.17;50.28;98891.00;4289960;33;34381;-96
2023/06/10 08:52:53;;;;;;;;;;;;;;;27.87;55.60;98890.06;4291494;33;35531;-93
2023/06/10 08:55:31;;;;;;;;;;;;;;;28.20;50.39;98887.16;4290337;33;34148;-93
2023/06/10 08:58:00;;;;;;;;;;;;;;;28.04;56.22;98885.88;4290828;33;33278;-95
2023/06/10 09:00:28;;;;;;;;;;;;;;;28.63;50.32;98881.41;4290429;33;34973;-94
2023/06/10 09:02:56;;;;;;;;;;;;;;;29.25;48.94;98879.16;4290935;33;35934;-93
2023/06/10 09:05:27;;;;;;;;;;;;;;;27.79;52.31;98866.66;4278963;33;34703;-94
2023/06/10 09:07:54;;;;;;;;;;;;;;;29.25;48.47;98871.09;4278758;33;32791;-93
2023/06/10 09:10:22;;;;;;;;;;;;;;;29.70;45.43;98874.84;4289699;33;34574;-93
2023/06/10 09:12:50;;;;;;;;;;;;;;;29.05;50.79;98866.78;4291224;33;34953;-94
2023/06/10 09:15:18;;;;;;;;;;;;;;;28.86;49.43;98865.84;4291116;33;34464;-94
2023/06/10 09:17:46;;;;;;;;;;;;;;;28.84;53.22;98861.62;4278215;33;32172;-93
2023/06/10 09:20:14;;;;;;;;;;;;;;;29.83;43.91;98861.09;4290813;33;34909;-94
2023/06/10 09:22:43;;;;;;;;;;;;;;;29.87;44.32;98854.44;4278512;33;35287;-95
2023/06/10 09:25:12;;;;;;;;;;;;;;;28.93;51.96;98861.59;4291056;33;34572;-94
2023/06/10 09:27:43;;;;;;;;;;;;;;;28.03;54.23;98852.09;4290147;33;33973;-96
2023/06/10 09:30:13;;;;;;;;;;;;;;;29.17;48.09;98849.53;4278333;33;34310;-96
2023/06/10 09:32:41;;;;;;;;;;;;;;;29.52;46.23;98844.44;4289663;33;34763;-93
2023/06/10 09:35:09;;;;;;;;;;;;;;;26.97;54.46;98851.59;4289833;33;35132;-96
2023/06/10 09:37:38;;;;;;;;;;;;;;;26.41;52.83;98858.09;4289803;33;32859;-96
2023/06/10 09:40:06;;;;;;;;;;;;;;;26.60;56.24;98857.37;4289687;33;34900;-93
2023/06/10 09:42:35;;;;;;;;;;;;;;;27.11;51.00;98855.75;4289726;33;36048;-95
2023/06/10 09:45:03;;;;;;;;;;;;;;;27.93;51.06;98851.22;4290708;33;35341;-94
2023/06/10 09:47:31;;;;;;;;;;;;;;;27.34;53.27;98850.22;4291119;33;33267;-91
2023/06/10 09:49:59;;;;;;;;;;;;;;;27.21;50.32;98850.41;4289781;33;34030;-90
2023/06/10 09:52:29;;;;;;;;;;;;;;;27.39;54.65;98859.53;4290992;33;35723;-90
2023/06/10 09:55:01;;;;;;;;;;;;;;;26.58;56.88;98854.00;4290507;33;34383;-91
2023/06/10 09:57:35;;;;;;;;;;;;;;;26.96;57.32;98862.41;4290598;33;33851;-91
2023/06/10 10:00:05;;;;;;;;;;;;;;;27.13;57.62;98852.94;4289658;33;34874;-92
2023/06/10 10:02:51;;;;;;;;;;;;;;;27.94;57.20;98842.22;4290619;33;34981;-92
2023/06/10 10:05:21;;;;;;;;;;;;;;;29.28;53.37;98857.41;4290808;33;34131;-91
2023/06/10 10:07:49;;;;;;;;;;;;;;;28.58;52.21;98848.00;4289458;33;33328;-91
2023/06/10 10:10:18;;;;;;;;;;;;;;;28.54;52.54;98850.97;4287857;33;33682;-91
2023/06/10 10:12:46;;;;;;;;;;;;;;;27.61;53.92;98846.94;4288223;33;34150;-91
2023/06/10 10:15:16;;;;;;;;;;;;;;;27.88;53.93;98848.09;4289362;33;34497;-94
2023/06/10 10:17:56;;;;;;;;;;;;;;;29.34;51.79;98847.94;4289238;33;33437;-91
2023/06/10 10:20:29;;;;;;;;;;;;;;;29.81;51.29;98853.19;4289388;33;34982;-91
2023/06/10 10:22:57;;;;;;;;;;;;;;;29.45;51.24;98854.94;4289159;33;36056;-91
2023/06/10 10:25:27;;;;;;;;;;;;;;;27.51;53.36;98844.22;4289492;33;34759;-92
2023/06/10 10:28:06;;;;;;;;;;;;;;;26.73;58.66;98851.03;4290615;33;33005;-92
2023/06/10 10:30:36;;;;;;;;;;;;;;;26.66;54.84;98846.19;4289490;33;33843;-92
2023/06/10 10:33:05;;;;;;;;;;;;;;;26.69;56.16;98845.09;4289356;33;34296;-92
2023/06/10 10:35:37;;;;;;;;;;;;;;;25.95;57.03;98842.41;4289518;33;34838;-91
2023/06/10 10:38:05;;;;;;;;;;;;;;;25.84;59.35;98838.78;4277186;33;33365;-91
2023/06/10 10:40:33;;;;;;;;;;;;;;;26.63;58.59;98830.47;4277063;33;33782;-92
2023/06/10 10:43:01;;;;;;;;;;;;;;;27.60;58.07;98829.16;4289187;33;35223;-92
2023/06/10 10:45:29;;;;;;;;;;;;;;;28.42;53.91;98825.31;4290489;33;34734;-92
2023/06/10 10:47:57;;;;;;;;;;;;;;;28.53;53.33;98822.44;4290523;33;33792;-92
2023/06/10 10:50:25;;;;;;;;;;;;;;;28.33;53.04;98823.47;4277301;33;34270;-92
2023/06/10 10:52:53;;;;;;;;;;;;;;;27.20;56.14;98819.34;4289379;33;35427;-91
2023/06/10 10:55:21;;;;;;;;;;;;;;;27.22;54.94;98825.38;4290334;33;34715;-91
2023/06/10 10:57:59;;;;;;;;;;;;;;;26.34;55.27;98818.69;4290346;33;33251;-91
2023/06/10 11:00:31;;;;;;;;;;;;;;;26.57;54.88;98824.75;4289056;33;34554;-91
2023/06/10 11:03:00;;;;;;;;;;;;;;;26.55;56.48;98824.03;4288978;33;34923;-92
2023/06/10 11:05:38;;;;;;;;;;;;;;;25.54;58.17;98824.28;4288944;33;34784;-92
2023/06/10 11:08:07;;;;;;;;;;;;;;;25.19;60.38;98819.09;4277752;33;34198;-93
2023/06/10 11:10:39;;;;;;;;;;;;;;;24.77;60.56;98817.03;4277219;33;34926;-94
2023/06/10 11:13:08;;;;;;;;;;;;;;;25.17;60.15;98815.72;4290165;33;35278;-91
2023/06/10 11:15:46;;;;;;;;;;;;;;;24.97;63.90;98819.94;4290341;33;35007;-92
2023/06/10 11:18:32;;;;;;;;;;;;;;;25.09;59.60;98816.31;4290422;33;34068;-93
2023/06/10 11:21:01;;;;;;;;;;;;;;;25.33;58.49;98818.88;4289429;33;35222;-92
2023/06/10 11:23:32;;;;;;;;;;;;;;;25.38;61.88;98815.84;4277209;33;36074;-92
2023/06/10 11:26:09;;;;;;;;;;;;;;;26.37;62.09;98810.44;4288860;33;34881;-93
2023/06/10 11:28:38;;;;;;;;;;;;;;;26.77;56.14;98804.37;4290337;33;33298;-92
2023/06/10 11:31:05;;;;;;;;;;;;;;;26.90;54.45;98810.34;4277070;33;35030;-93
2023/06/10 11:33:33;;;;;;;;;;;;;;;26.90;54.93;98815.69;4287845;33;34937;-92
2023/06/10 11:36:01;;;;;;;;;;;;;;;28.36;50.48;98809.78;4288662;33;34388;-92
2023/06/10 11:38:29;;;;;;;;;;;;;;;28.34;50.03;98801.94;4288731;33;32756;-93
2023/06/10 11:40:57;;;;;;;;;;;;;;;28.20;48.10;98810.38;4288624;33;34143;-93
2023/06/10 11:43:25;;;;;;;;;;;;;;;27.32;49.54;98802.25;4289844;33;35741;-93
2023/06/10 11:45:56;;;;;;;;;;;;;;;26.34;52.40;98797.34;4289778;33;34662;-92
2023/06/10 11:48:24;;;;;;;;;;;;;;;26.51;54.87;98793.22;4289867;33;33920;-94
2023/06/10 11:50:52;;;;;;;;;;;;;;;26.96;53.26;98792.94;4289783;33;34957;-92
2023/06/10 11:53:20;;;;;;;;;;;;;;;27.88;54.54;98789.22;4288580;33;35950;-93
2023/06/10 11:55:49;;;;;;;;;;;;;;;27.97;50.00;98796.44;4288552;33;34088;-92
2023/06/10 11:58:18;;;;;;;;;;;;;;;27.47;50.95;98792.00;4288766;33;33275;-93
2023/06/10 12:00:53;;;;;;;;;;;;;;;27.85;51.86;98792.16;4288331;33;34488;-93
2023/06/10 12:03:24;;;;;;;;;;;;;;;28.84;45.65;98789.28;4288216;33;36066;-92
2023/06/10 12:06:03;;;;;;;;;;;;;;;28.81;50.71;98781.53;4289658;33;34455;-88
2023/06/10 12:08:32;;;;;;;;;;;;;;;28.58;47.24;98783.72;4288584;33;33375;-93
2023/06/10 12:11:03;;;;;;;;;;;;;;;29.36;45.27;98781.56;4288488;33;34147;-94
2023/06/10 12:13:30;;;;;;;;;;;;;;;30.34;45.12;98781.72;4289592;33;34968;-93
2023/06/10 12:16:09;;;;;;;;;;;;;;;29.89;46.97;98779.97;4288145;33;35098;-92
2023/06/10 12:18:36;;;;;;;;;;;;;;;28.78;50.70;98773.78;4288383;33;33827;-92
2023/06/10 12:21:15;;;;;;;;;;;;;;;27.95;48.41;98774.31;4289443;33;33965;-92
2023/06/10 12:24:02;;;;;;;;;;;;;;;28.21;51.03;98766.56;4276328;33;35997;-92
2023/06/10 12:26:35;;;;;;;;;;;;;;;27.24;50.99;98764.63;4289277;33;34295;-92
2023/06/10 12:29:17;;;;;;;;;;;;;;;26.90;56.99;98762.25;4289430;33;33252;-92
2023/06/10 12:31:56;;;;;;;;;;;;;;;26.59;58.15;98764.88;4289110;33;33149;-92
2023/06/10 12:34:33;;;;;;;;;;;;;;;26.20;59.17;98759.31;4289135;33;34987;-92
2023/06/10 12:37:02;;;;;;;;;;;;;;;25.66;58.34;98755.81;4276160;33;34179;-91
2023/06/10 12:39:33;;;;;;;;;;;;;;;25.59;59.47;98759.06;4288042;33;33329;-91
2023/06/10 12:42:03;;;;;;;;;;;;;;;25.27;64.33;98754.56;4287996;33;34857;-91
2023/06/10 12:44:34;;;;;;;;;;;;;;;25.44;58.87;98756.69;4287916;33;35257;-92
2023/06/10 12:47:09;;;;;;;;;;;;;;;25.66;56.29;98752.25;4289939;33;34705;-92
2023/06/10 12:49:38;;;;;;;;;;;;;;;25.96;57.74;98748.06;4290447;33;32887;-92
2023/06/10 12:52:07;;;;;;;;;;;;;;;25.83;62.90;98741.03;4289979;33;34942;-93